createdAt,value
2023-03-02T00:02:17.565Z,69.70
2023-03-02T00:04:46.359Z,70.00
2023-03-02T00:07:18.217Z,69.90
2023-03-02T00:09:45.200Z,70.00
2023-03-02T00:12:12.880Z,70.20
2023-03-02T00:14:39.461Z,70.20
2023-03-02T00:17:07.937Z,70.30
2023-03-02T00:19:34.613Z,70.80
2023-03-02T00:22:01.230Z,70.80
2023-03-02T00:24:27.856Z,70.90
2023-03-02T00:26:54.499Z,71.00
2023-03-02T00:29:21.228Z,71.00
2023-03-02T00:31:47.943Z,71.20
2023-03-02T00:34:14.603Z,71.30
2023-03-02T00:36:41.547Z,71.50
2023-03-02T00:39:08.296Z,72.00
2023-03-02T00:41:34.934Z,72.60
2023-03-02T00:44:01.747Z,72.50
2023-03-02T00:46:28.661Z,72.40
2023-03-02T00:48:55.496Z,72.30
2023-03-02T00:51:22.162Z,72.40
2023-03-02T00:53:48.774Z,72.40
2023-03-02T00:56:15.472Z,72.30
2023-03-02T00:58:42.125Z,72.20
2023-03-02T01:01:11.494Z,72.30
2023-03-02T01:03:38.575Z,72.40
2023-03-02T01:06:05.894Z,72.40
2023-03-02T01:08:32.778Z,72.40
2023-03-02T01:11:01.323Z,72.50
2023-03-02T01:13:28.367Z,72.60
2023-03-02T01:16:02.690Z,72.60
2023-03-02T01:18:29.746Z,72.60
2023-03-02T01:21:08.232Z,72.70
2023-03-02T01:23:34.938Z,72.70
2023-03-02T01:26:02.050Z,72.70
2023-03-02T01:28:28.676Z,72.60
2023-03-02T01:30:55.308Z,72.60
2023-03-02T01:33:22.017Z,72.60
2023-03-02T01:35:48.765Z,72.60
2023-03-02T01:38:15.510Z,72.60
2023-03-02T01:40:42.167Z,72.70
2023-03-02T01:43:14.839Z,72.70
2023-03-02T01:45:53.978Z,72.80
2023-03-02T01:48:27.266Z,72.80
2023-03-02T01:50:55.211Z,72.70
2023-03-02T01:53:24.990Z,72.90
2023-03-02T01:55:51.593Z,72.80
2023-03-02T01:58:19.048Z,72.80
2023-03-02T02:00:45.895Z,72.80
2023-03-02T02:03:20.883Z,72.90
2023-03-02T02:06:06.070Z,73.00
2023-03-02T02:08:33.141Z,73.00
2023-03-02T02:11:00.501Z,73.00
2023-03-02T02:13:27.289Z,73.00
2023-03-02T02:15:53.928Z,73.20
2023-03-02T02:18:20.591Z,73.30
2023-03-02T02:20:48.965Z,73.40
2023-03-02T02:23:27.369Z,73.40
2023-03-02T02:25:55.383Z,73.50
2023-03-02T02:28:30.575Z,73.50
2023-03-02T02:31:09.275Z,73.50
2023-03-02T02:33:37.689Z,73.50
2023-03-02T02:36:14.277Z,73.50
2023-03-02T02:38:42.112Z,73.50
2023-03-02T02:41:17.247Z,73.50
2023-03-02T02:43:43.959Z,73.60
2023-03-02T02:46:12.568Z,73.70
2023-03-02T02:48:39.808Z,73.60
2023-03-02T02:51:09.105Z,73.60
2023-03-02T02:53:58.556Z,73.60
2023-03-02T02:56:28.417Z,73.70
2023-03-02T02:58:57.930Z,73.70
2023-03-02T03:01:26.650Z,73.70
2023-03-02T03:04:00.461Z,73.80
2023-03-02T03:06:38.629Z,73.80
2023-03-02T03:09:10.375Z,73.90
2023-03-02T03:11:41.080Z,74.00
2023-03-02T03:14:11.489Z,73.90
2023-03-02T03:16:40.323Z,74.00
2023-03-02T03:19:19.697Z,74.00
2023-03-02T03:21:49.743Z,74.00
2023-03-02T03:24:17.010Z,74.10
2023-03-02T03:26:44.020Z,74.10
2023-03-02T03:29:11.964Z,74.20
2023-03-02T03:31:38.816Z,74.20
2023-03-02T03:34:06.196Z,74.30
2023-03-02T03:36:33.860Z,74.40
2023-03-02T03:39:01.406Z,74.50
2023-03-02T03:41:28.133Z,74.60
2023-03-02T03:43:55.172Z,74.90
2023-03-02T03:46:21.848Z,75.00
2023-03-02T03:48:48.609Z,75.00
2023-03-02T03:51:15.726Z,75.00
2023-03-02T03:53:42.372Z,75.10
2023-03-02T03:56:09.189Z,75.10
2023-03-02T03:58:35.924Z,75.10
2023-03-02T04:01:03.272Z,75.10
2023-03-02T04:03:29.986Z,75.00
2023-03-02T04:05:56.606Z,75.00
2023-03-02T04:08:23.277Z,74.90
2023-03-02T04:10:49.844Z,75.00
2023-03-02T04:13:16.515Z,75.20
2023-03-02T04:15:46.532Z,75.30
2023-03-02T04:18:13.586Z,75.40
2023-03-02T04:20:40.226Z,75.50
2023-03-02T04:23:06.848Z,75.60
2023-03-02T04:25:33.580Z,75.70
2023-03-02T04:28:00.275Z,75.70
2023-03-02T04:30:27.251Z,75.80
2023-03-02T04:32:54.292Z,75.90
2023-03-02T04:35:21.019Z,75.80
2023-03-02T04:37:47.674Z,75.80
2023-03-02T04:40:16.036Z,75.80
2023-03-02T04:42:44.734Z,75.70
2023-03-02T04:45:12.602Z,75.70
2023-03-02T04:47:40.152Z,75.80
2023-03-02T04:50:08.350Z,75.80
2023-03-02T04:52:35.105Z,75.90
2023-03-02T04:55:01.983Z,75.90
2023-03-02T04:57:28.633Z,75.80
2023-03-02T04:59:55.244Z,75.90
2023-03-02T05:02:21.971Z,75.90
2023-03-02T05:04:48.675Z,75.90
2023-03-02T05:07:15.279Z,75.80
2023-03-02T05:09:41.930Z,75.90
2023-03-02T05:12:08.521Z,75.90
2023-03-02T05:14:35.189Z,75.90
2023-03-02T05:17:01.803Z,76.00
2023-03-02T05:19:28.513Z,76.00
2023-03-02T05:21:56.393Z,76.00
2023-03-02T05:24:23.080Z,76.00
2023-03-02T05:26:49.694Z,76.00
2023-03-02T05:29:16.358Z,76.10
2023-03-02T05:31:44.726Z,76.10
2023-03-02T05:34:16.017Z,76.10
2023-03-02T05:36:43.411Z,76.10
2023-03-02T05:39:10.060Z,76.10
2023-03-02T05:41:37.852Z,76.00
2023-03-02T05:44:06.023Z,76.00
2023-03-02T05:46:33.018Z,76.10
2023-03-02T05:48:59.837Z,76.00
2023-03-02T05:51:27.430Z,76.00
2023-03-02T05:53:54.568Z,75.90
2023-03-02T05:56:22.458Z,75.90
2023-03-02T05:58:49.169Z,75.90
2023-03-02T06:01:15.795Z,75.90
2023-03-02T06:03:43.517Z,75.90
2023-03-02T06:06:13.784Z,76.00
2023-03-02T06:08:41.105Z,76.10
2023-03-02T06:11:08.816Z,76.20
2023-03-02T06:13:36.160Z,76.30
2023-03-02T06:16:03.133Z,76.30
2023-03-02T06:18:29.895Z,76.40
2023-03-02T06:20:56.629Z,76.40
2023-03-02T06:23:23.405Z,76.50
2023-03-02T06:25:50.098Z,76.50
2023-03-02T06:28:19.753Z,76.50
2023-03-02T06:30:48.656Z,76.60
2023-03-02T06:33:20.985Z,76.60
2023-03-02T06:35:48.313Z,76.60
2023-03-02T06:38:15.055Z,76.50
2023-03-02T06:40:41.666Z,76.50
2023-03-02T06:43:08.266Z,76.50
2023-03-02T06:45:35.028Z,76.40
2023-03-02T06:48:02.461Z,76.40
2023-03-02T06:50:29.264Z,76.30
2023-03-02T06:52:56.595Z,76.20
2023-03-02T06:55:23.450Z,76.20
2023-03-02T06:57:50.148Z,76.10
2023-03-02T07:00:25.837Z,76.10
2023-03-02T07:02:53.594Z,76.20
2023-03-02T07:05:20.781Z,76.20
2023-03-02T07:07:47.666Z,76.20
2023-03-02T07:10:14.452Z,76.20
2023-03-02T07:12:41.857Z,76.40
2023-03-02T07:15:11.150Z,76.70
2023-03-02T07:17:39.418Z,76.30
2023-03-02T07:20:06.885Z,76.10
2023-03-02T07:22:33.481Z,75.90
2023-03-02T07:25:00.152Z,75.90
2023-03-02T07:27:26.753Z,76.00
2023-03-02T07:29:53.515Z,76.40
2023-03-02T07:32:20.103Z,76.80
2023-03-02T07:34:46.738Z,76.30
2023-03-02T07:37:13.340Z,75.80
2023-03-02T07:39:39.934Z,75.60
2023-03-02T07:42:08.824Z,75.60
2023-03-02T07:44:35.477Z,75.80
2023-03-02T07:47:02.029Z,76.60
2023-03-02T07:49:28.692Z,76.00
2023-03-02T07:51:55.328Z,75.90
2023-03-02T07:54:22.513Z,75.50
2023-03-02T07:56:49.227Z,75.30
2023-03-02T07:59:15.800Z,75.30
2023-03-02T08:01:42.566Z,75.30
2023-03-02T08:04:09.610Z,75.80
2023-03-02T08:06:36.227Z,75.90
2023-03-02T08:09:04.719Z,75.80
2023-03-02T08:11:31.702Z,75.80
2023-03-02T08:14:02.797Z,75.90
2023-03-02T08:16:29.830Z,76.70
2023-03-02T08:18:59.533Z,77.10
2023-03-02T08:21:27.458Z,76.70
2023-03-02T08:23:54.255Z,74.90
2023-03-02T08:26:21.125Z,73.10
2023-03-02T08:28:48.138Z,72.10
2023-03-02T08:31:15.539Z,72.10
2023-03-02T08:33:42.346Z,72.90
2023-03-02T08:36:18.364Z,72.90
2023-03-02T08:38:45.741Z,72.10
2023-03-02T08:41:15.260Z,72.20
2023-03-02T08:43:42.135Z,72.00
2023-03-02T08:46:10.390Z,71.40
2023-03-02T08:48:37.025Z,70.50
2023-03-02T08:51:09.572Z,69.00
2023-03-02T08:53:39.150Z,67.60
2023-03-02T08:56:14.573Z,66.00
2023-03-02T08:58:41.164Z,64.10
2023-03-02T09:01:14.189Z,62.30
2023-03-02T09:03:40.964Z,60.70
2023-03-02T09:06:07.595Z,60.60
2023-03-02T09:08:34.251Z,60.80
2023-03-02T09:11:00.860Z,60.70
2023-03-02T09:13:27.512Z,60.10
2023-03-02T09:15:54.161Z,59.00
2023-03-02T09:18:20.794Z,58.20
2023-03-02T09:20:52.012Z,56.50
2023-03-02T09:23:20.093Z,54.80
2023-03-02T09:25:49.847Z,53.30
2023-03-02T09:28:17.036Z,52.20
2023-03-02T09:30:52.682Z,50.70
2023-03-02T09:33:20.746Z,48.30
2023-03-02T09:35:47.717Z,48.10
2023-03-02T09:38:18.317Z,46.80
2023-03-02T09:41:00.332Z,44.60
2023-03-02T09:44:01.948Z,42.50
2023-03-02T09:46:44.237Z,42.30
2023-03-02T09:49:43.070Z,42.10
2023-03-02T09:52:28.861Z,40.80
2023-03-02T09:54:56.996Z,38.20
2023-03-02T09:57:32.072Z,39.00
2023-03-02T10:00:18.148Z,37.80
2023-03-02T10:02:54.474Z,37.90
2023-03-02T10:05:42.583Z,36.30
2023-03-02T10:08:16.479Z,35.50
2023-03-02T10:10:45.575Z,35.10
2023-03-02T10:13:31.229Z,34.80
2023-03-02T10:16:13.798Z,34.40
2023-03-02T10:19:08.785Z,33.50
2023-03-02T10:21:45.340Z,33.50
2023-03-02T10:24:43.131Z,33.10
2023-03-02T10:27:26.077Z,32.00
2023-03-02T10:30:01.209Z,32.70
2023-03-02T10:32:32.801Z,32.60
2023-03-02T10:35:10.150Z,34.00
2023-03-02T10:37:36.798Z,34.60
2023-03-02T10:40:03.553Z,35.80
2023-03-02T10:42:35.281Z,36.80
2023-03-02T10:45:31.601Z,37.70
2023-03-02T10:48:07.680Z,38.50
2023-03-02T10:50:34.566Z,39.10
2023-03-02T10:53:04.163Z,39.20
2023-03-02T10:55:33.439Z,39.70
2023-03-02T10:58:03.026Z,38.40
2023-03-02T11:00:31.279Z,38.20
2023-03-02T11:02:59.205Z,38.40
2023-03-02T11:05:38.145Z,38.80
2023-03-02T11:08:20.977Z,39.20
2023-03-02T11:10:59.850Z,40.20
2023-03-02T11:13:38.324Z,41.00
2023-03-02T11:16:07.238Z,41.10
2023-03-02T11:18:51.818Z,40.70
2023-03-02T11:21:32.672Z,41.10
2023-03-02T11:24:10.347Z,41.30
2023-03-02T11:26:46.062Z,42.40
2023-03-02T11:29:31.040Z,42.80
2023-03-02T11:32:17.326Z,42.50
2023-03-02T11:34:51.086Z,42.20
2023-03-02T11:37:28.216Z,42.90
2023-03-02T11:40:31.453Z,43.90
2023-03-02T11:43:00.463Z,44.40
2023-03-02T11:45:42.129Z,44.70
2023-03-02T11:48:23.245Z,44.90
2023-03-02T11:50:57.844Z,45.20
2023-03-02T11:53:50.031Z,45.10
2023-03-02T11:56:17.175Z,45.00
2023-03-02T11:58:45.708Z,45.70
2023-03-02T12:01:20.143Z,45.70
2023-03-02T12:03:47.753Z,45.80
2023-03-02T12:06:14.323Z,45.50
2023-03-02T12:08:43.791Z,45.40
2023-03-02T12:11:19.692Z,46.70
2023-03-02T12:14:25.983Z,45.60
2023-03-02T12:17:03.050Z,45.20
2023-03-02T12:19:40.645Z,46.00
2023-03-02T12:22:10.614Z,46.70
2023-03-02T12:24:39.464Z,46.70
2023-03-02T12:27:15.423Z,46.80
2023-03-02T12:29:45.323Z,46.50
2023-03-02T12:32:31.541Z,46.30
2023-03-02T12:35:10.948Z,46.10
2023-03-02T12:37:49.326Z,45.90
2023-03-02T12:40:43.485Z,46.10
2023-03-02T12:43:28.014Z,45.50
2023-03-02T12:46:16.368Z,44.70
2023-03-02T12:49:05.106Z,44.20
2023-03-02T12:51:55.521Z,44.60
2023-03-02T12:54:27.933Z,44.30
2023-03-02T12:57:15.365Z,41.70
2023-03-02T12:59:42.662Z,42.30
2023-03-02T13:02:23.189Z,42.70
2023-03-02T13:04:54.412Z,41.80
2023-03-02T13:07:26.032Z,42.90
2023-03-02T13:09:56.947Z,43.40
2023-03-02T13:12:26.881Z,44.00
2023-03-02T13:14:57.144Z,44.40
2023-03-02T13:17:32.726Z,44.60
2023-03-02T13:20:01.315Z,44.60
2023-03-02T13:22:28.576Z,45.80
2023-03-02T13:25:03.399Z,44.50
2023-03-02T13:27:30.840Z,44.90
2023-03-02T13:30:21.826Z,44.50
2023-03-02T13:32:48.514Z,45.20
2023-03-02T13:35:24.894Z,45.20
2023-03-02T13:38:16.068Z,45.70
2023-03-02T13:40:48.168Z,45.60
2023-03-02T13:43:29.613Z,45.70
2023-03-02T13:45:59.603Z,45.70
2023-03-02T13:48:27.772Z,45.60
2023-03-02T13:50:58.523Z,45.90
2023-03-02T13:53:30.312Z,46.40
2023-03-02T13:56:00.214Z,46.30
2023-03-02T13:58:29.240Z,46.50
2023-03-02T14:00:56.260Z,46.30
2023-03-02T14:03:29.750Z,46.50
2023-03-02T14:05:57.834Z,46.70
2023-03-02T14:08:24.957Z,47.20
2023-03-02T14:10:59.582Z,47.40
2023-03-02T14:13:50.040Z,47.40
2023-03-02T14:16:17.160Z,47.80
2023-03-02T14:18:48.848Z,47.80
2023-03-02T14:21:22.142Z,47.60
2023-03-02T14:23:48.978Z,48.30
2023-03-02T14:26:30.873Z,48.50
2023-03-02T14:29:05.407Z,48.80
2023-03-02T14:31:33.857Z,49.00
2023-03-02T14:34:00.731Z,49.30
2023-03-02T14:36:31.130Z,49.60
2023-03-02T14:39:00.731Z,49.50
2023-03-02T14:41:28.309Z,49.70
2023-03-02T14:43:55.458Z,50.00
2023-03-02T14:46:22.239Z,50.30
2023-03-02T14:48:48.931Z,50.70
2023-03-02T14:51:24.908Z,50.80
2023-03-02T14:53:53.920Z,51.10
2023-03-02T14:56:24.515Z,51.40
2023-03-02T14:58:52.547Z,51.50
2023-03-02T15:01:19.961Z,51.90
2023-03-02T15:03:46.840Z,52.20
2023-03-02T15:06:27.882Z,52.30
2023-03-02T15:08:56.836Z,52.60
2023-03-02T15:11:23.846Z,52.60
2023-03-02T15:13:50.557Z,52.90
2023-03-02T15:16:17.260Z,53.00
2023-03-02T15:18:44.020Z,53.40
2023-03-02T15:21:17.660Z,53.60
2023-03-02T15:23:44.945Z,53.90
2023-03-02T15:26:12.575Z,54.00
2023-03-02T15:28:39.726Z,54.40
2023-03-02T15:31:11.648Z,54.60
2023-03-02T15:33:38.847Z,54.60
2023-03-02T15:36:08.642Z,54.80
2023-03-02T15:38:36.563Z,54.80
2023-03-02T15:41:13.184Z,55.00
2023-03-02T15:43:39.957Z,55.40
2023-03-02T15:46:09.204Z,55.50
2023-03-02T15:48:36.923Z,55.70
2023-03-02T15:51:05.912Z,55.90
2023-03-02T15:53:37.635Z,56.10
2023-03-02T15:56:10.508Z,55.90
2023-03-02T15:58:37.159Z,56.00
2023-03-02T16:01:08.128Z,56.10
2023-03-02T16:03:34.826Z,56.40
2023-03-02T16:06:01.592Z,56.50
2023-03-02T16:08:28.240Z,57.90
2023-03-02T16:10:59.781Z,56.80
2023-03-02T16:13:26.877Z,56.90
2023-03-02T16:15:53.896Z,57.10
2023-03-02T16:18:20.588Z,58.30
2023-03-02T16:20:47.211Z,57.70
2023-03-02T16:23:16.003Z,58.80
2023-03-02T16:25:43.770Z,58.00
2023-03-02T16:28:11.843Z,58.30
2023-03-02T16:30:39.470Z,58.80
2023-03-02T16:33:08.747Z,59.20
2023-03-02T16:35:37.066Z,59.40
2023-03-02T16:38:04.391Z,59.70
2023-03-02T16:40:31.600Z,60.00
2023-03-02T16:42:58.339Z,60.10
2023-03-02T16:45:25.175Z,60.20
2023-03-02T16:47:51.949Z,60.40
2023-03-02T16:50:18.654Z,60.50
2023-03-02T16:52:45.470Z,60.80
2023-03-02T16:55:18.514Z,60.90
2023-03-02T16:57:45.581Z,61.10
2023-03-02T17:00:15.532Z,61.20
2023-03-02T17:02:42.508Z,61.50
2023-03-02T17:05:09.949Z,61.80
2023-03-02T17:07:37.303Z,61.90
2023-03-02T17:10:06.045Z,62.10
2023-03-02T17:12:32.793Z,62.10
2023-03-02T17:14:59.443Z,62.40
2023-03-02T17:17:26.170Z,62.50
2023-03-02T17:19:52.854Z,62.70
2023-03-02T17:22:19.501Z,62.90
2023-03-02T17:24:46.147Z,63.10
2023-03-02T17:27:24.073Z,63.10
2023-03-02T17:29:52.106Z,63.20
2023-03-02T17:32:18.922Z,63.40
2023-03-02T17:34:45.938Z,64.50
2023-03-02T17:37:12.626Z,63.80
2023-03-02T17:39:39.233Z,64.00
2023-03-02T17:42:06.297Z,63.90
2023-03-02T17:44:34.575Z,64.00
2023-03-02T17:47:04.094Z,64.10
2023-03-02T17:49:30.977Z,64.20
2023-03-02T17:51:57.732Z,64.40
2023-03-02T17:54:24.335Z,64.40
2023-03-02T17:56:51.053Z,64.60
2023-03-02T17:59:17.960Z,64.60
2023-03-02T18:01:44.849Z,64.70
2023-03-02T18:04:11.563Z,64.80
2023-03-02T18:06:38.148Z,65.00
2023-03-02T18:09:04.832Z,65.00
2023-03-02T18:11:31.549Z,65.20
2023-03-02T18:13:58.571Z,65.20
2023-03-02T18:16:28.014Z,65.30
2023-03-02T18:18:55.509Z,65.50
2023-03-02T18:21:22.312Z,65.50
2023-03-02T18:23:48.913Z,65.70
2023-03-02T18:26:16.583Z,65.80
2023-03-02T18:28:43.536Z,65.90
2023-03-02T18:31:11.686Z,66.00
2023-03-02T18:33:38.339Z,66.10
2023-03-02T18:36:05.520Z,66.30
2023-03-02T18:38:33.731Z,66.50
2023-03-02T18:41:03.131Z,66.60
2023-03-02T18:43:32.617Z,66.60
2023-03-02T18:46:00.707Z,66.70
2023-03-02T18:48:27.674Z,66.80
2023-03-02T18:50:54.780Z,66.80
2023-03-02T18:53:21.586Z,66.90
2023-03-02T18:55:48.752Z,67.10
2023-03-02T18:58:21.390Z,67.30
2023-03-02T19:00:48.666Z,67.30
2023-03-02T19:03:17.165Z,67.40
2023-03-02T19:05:44.800Z,67.40
2023-03-02T19:08:12.120Z,67.40
2023-03-02T19:10:40.639Z,67.50
2023-03-02T19:13:09.213Z,68.30
2023-03-02T19:15:37.112Z,67.50
2023-03-02T19:18:04.050Z,67.60
2023-03-02T19:20:30.777Z,67.70
2023-03-02T19:22:57.675Z,67.80
2023-03-02T19:25:24.410Z,67.90
2023-03-02T19:27:51.097Z,67.90
2023-03-02T19:30:22.111Z,68.00
2023-03-02T19:32:48.864Z,68.00
2023-03-02T19:35:19.855Z,67.90
2023-03-02T19:37:46.532Z,67.90
2023-03-02T19:40:14.784Z,68.00
2023-03-02T19:42:41.775Z,68.30
2023-03-02T19:45:12.393Z,68.40
2023-03-02T19:47:38.974Z,68.40
2023-03-02T19:50:06.478Z,68.40
2023-03-02T19:52:33.510Z,68.60
2023-03-02T19:55:00.173Z,68.60
2023-03-02T19:57:26.769Z,68.70
2023-03-02T19:59:53.554Z,68.80
2023-03-02T20:02:20.173Z,68.70
2023-03-02T20:04:48.829Z,68.90
2023-03-02T20:07:16.013Z,69.00
2023-03-02T20:09:42.676Z,69.00
2023-03-02T20:12:10.805Z,69.10
2023-03-02T20:14:40.523Z,69.10
2023-03-02T20:17:07.168Z,69.30
2023-03-02T20:19:33.768Z,69.40
2023-03-02T20:22:03.606Z,69.40
2023-03-02T20:24:31.558Z,69.50
2023-03-02T20:26:58.248Z,69.70
2023-03-02T20:29:24.854Z,69.90
2023-03-02T20:31:51.559Z,69.90
2023-03-02T20:34:18.225Z,70.00
2023-03-02T20:36:45.706Z,70.20
2023-03-02T20:39:16.712Z,70.30
2023-03-02T20:41:44.238Z,70.40
2023-03-02T20:44:14.497Z,70.50
2023-03-02T20:46:46.326Z,70.70
2023-03-02T20:49:15.419Z,70.80
2023-03-02T20:51:45.440Z,70.80
2023-03-02T20:54:12.093Z,70.80
2023-03-02T20:56:40.150Z,70.80
2023-03-02T20:59:06.870Z,70.80
2023-03-02T21:01:36.851Z,70.80
2023-03-02T21:04:03.560Z,70.80
2023-03-02T21:06:33.311Z,71.00
2023-03-02T21:09:01.021Z,71.20
2023-03-02T21:11:29.353Z,71.20
2023-03-02T21:13:59.205Z,71.30
2023-03-02T21:16:32.228Z,71.40
2023-03-02T21:18:59.194Z,71.50
2023-03-02T21:21:39.429Z,71.60
2023-03-02T21:24:09.391Z,71.70
2023-03-02T21:26:36.767Z,71.80
2023-03-02T21:29:05.153Z,71.70
2023-03-02T21:31:31.924Z,71.70
2023-03-02T21:33:59.976Z,71.80
2023-03-02T21:36:27.122Z,71.80
2023-03-02T21:38:54.264Z,72.00
2023-03-02T21:41:21.672Z,72.00
2023-03-02T21:43:49.009Z,72.10
2023-03-02T21:46:19.671Z,72.10
2023-03-02T21:48:47.673Z,72.30
2023-03-02T21:51:14.736Z,72.30
2023-03-02T21:53:41.869Z,72.30
2023-03-02T21:56:09.195Z,72.40
2023-03-02T21:58:35.781Z,72.50
2023-03-02T22:01:02.420Z,72.60
2023-03-02T22:03:29.065Z,72.60
2023-03-02T22:05:55.674Z,72.60
2023-03-02T22:08:22.306Z,72.70
2023-03-02T22:10:50.853Z,72.80
2023-03-02T22:13:26.020Z,72.80
2023-03-02T22:16:19.148Z,72.80
2023-03-02T22:18:48.093Z,72.90
2023-03-02T22:21:50.651Z,72.80
2023-03-02T22:24:35.164Z,72.80
2023-03-02T22:27:20.318Z,72.70
2023-03-02T22:29:48.832Z,72.80
2023-03-02T22:32:18.548Z,72.70
2023-03-02T22:34:47.675Z,72.80
2023-03-02T22:37:19.916Z,72.90
2023-03-02T22:39:47.949Z,73.00
2023-03-02T22:42:16.047Z,73.10
2023-03-02T22:44:44.372Z,73.30
2023-03-02T22:47:20.203Z,73.30
2023-03-02T22:49:47.872Z,73.40
2023-03-02T22:52:19.798Z,73.40
2023-03-02T22:54:46.517Z,73.50
2023-03-02T22:57:29.710Z,73.40
2023-03-02T23:00:22.996Z,73.40
2023-03-02T23:02:50.876Z,73.40
2023-03-02T23:05:26.235Z,73.50
2023-03-02T23:08:25.674Z,73.40
2023-03-02T23:10:54.933Z,73.50
2023-03-02T23:13:25.102Z,73.30
2023-03-02T23:15:53.414Z,73.40
2023-03-02T23:18:26.559Z,73.40
2023-03-02T23:20:53.745Z,73.50
2023-03-02T23:23:22.367Z,73.50
2023-03-02T23:25:50.098Z,73.50
2023-03-02T23:28:16.937Z,73.50
2023-03-02T23:30:43.536Z,73.50
2023-03-02T23:33:10.168Z,73.50
2023-03-02T23:35:37.027Z,73.60
2023-03-02T23:38:03.728Z,73.60
2023-03-02T23:40:30.357Z,73.60
2023-03-02T23:42:57.300Z,73.60
2023-03-02T23:45:23.995Z,73.60
2023-03-02T23:47:50.679Z,73.70
2023-03-02T23:50:17.346Z,73.70
2023-03-02T23:52:43.935Z,73.70
2023-03-02T23:55:11.313Z,73.70
2023-03-02T23:57:37.975Z,73.70
